Barstow, Texas
Current Conditions -  °F | °C
As of 10:55 PM on Monday 20 Oct 2014 (Local Time) from KPEQ Reporting Station
Drizzle Drizzle  
Wind Chill: 64°   Ceiling: 10000
Heat Index: 64°   Visibility: 5mi
Dew Point: 62°   Wind: 0mph
Humidity: 94%   Direction: NA
Pressure: 30.07"   Gusts: NA
Location:  31.46°N, 103.39°W
Report Text: KPEQ 210355Z AUTO 00000KT 5SM -DZ OVC100 18/17 A3007 RMK AO2 T01770168
Loading
Personal Weather Stations






























Interactive Weather Map New forecast layout! Learn more

10-Day Weather Forecast

Advertisements
Track Severe Weather on mobile